x

Isle Of Shoals, Nh (iosn3) Weather Station

5:00 - Tue 26th Sep 2017 All times are EDT. -4 hours from GMT.

  • Wind
    5mph, 6mph gusts
  • Air Temp 63°f
  • Sea Pressure 1016.5mb
  • Isle Of Shoals, Nh
  • Isle Of Shoals, Nh

More Historic Weather Station data

Upgrade to MSW Pro to gain access to the past 30 days of data for over 8000 Wavebouys and Weather Stations around the globe.

Join

Comparision Forecast

View Surf forecast
   
mar. 09/26 5:00 5 6 mph 1016.5mb 63f
4:00 6 6 mph 1016.7mb 63f
3:00 7 8 mph 1017.2mb 62f
2:00 7 7 mph 1017.1mb 63f
1:00 2 2 mph 1017.4mb 63f
12:00 6 7 mph 1017.4mb 64f
lun. 09/25 11:00 10 11 mph 1017.7mb 65f
10:00 7 8 mph 1017.8mb 65f
9:00 9 10 mph 1018mb 64f
8:00 13 15 mph 1017.8mb 65f
7:00 17 17 mph 1017.3mb 68f
6:00 17 17 mph 1017.3mb 70f
5:00 15
mph
- -
4:00 13 13 mph 1017.7mb 68f
3:00 6 7 mph 1017.9mb 69f
2:00 6 6 mph 1018.3mb 69f
1:00 6 6 mph 1018.6mb 67f
12:00 6 6 mph 1018.8mb 66f
11:00 7 7 mph 1019mb 67f
10:00 7 7 mph 1018.9mb 69f
9:00 8 8 mph 1018.3mb 68f
8:00 3 3 mph 1018.2mb 69f
7:00  -  1 mph 1018mb 66f
6:00 3 3 mph 1017.2mb 67f
5:00 3 5 mph 1016.8mb 67f
4:00 5 5 mph 1016.5mb 68f
3:00 3 3 mph 1016.4mb 69f
2:00 2 2 mph 1016.6mb 70f
1:00 3 3 mph 1016.7mb 71f
12:00 11 13 mph 1016.8mb 69f
dim. 09/24 11:00 14 15 mph 1016.8mb 70f
10:00 13 13 mph 1016.6mb 70f
9:00 13 13 mph 1016.5mb 71f
8:00 15 16 mph 1016.3mb 74f
7:00 17 17 mph 1016mb 73f
6:00 15 16 mph 1015.8mb 73f
5:00 18 18 mph 1015.8mb 69f
4:00 14 15 mph 1016mb 70f
3:00 8 8 mph 1016.4mb 74f
2:00 6 6 mph 1016.8mb 72f
1:00 3 3 mph 1017.2mb 72f
12:00 1 2 mph 1017.5mb 73f
11:00 3 3 mph 1017.6mb 73f
10:00 6 7 mph 1017.6mb 70f
9:00 10 10 mph 1017.9mb 68f
8:00 5 6 mph 1017.6mb 68f
7:00 8 9 mph 1017.5mb 66f
6:00 6 7 mph 1017mb 66f
5:00 10 10 mph 1016.7mb 66f
4:00 8 8 mph 1016.4mb 64f
3:00 6 6 mph 1016.1mb 62f
2:00 9 9 mph 1016.2mb 64f
1:00 8 9 mph 1016.3mb 64f
12:00 8 8 mph 1016.4mb 63f
sam. 09/23 11:00 7 7 mph 1016.8mb 63f
10:00 8 8 mph 1016.7mb 63f
9:00 6 7 mph 1016.4mb 62f
8:00 5 5 mph 1016.3mb 62f
7:00 3 3 mph 1016mb 62f
6:00 5 5 mph 1015.9mb 63f
5:00 3 5 mph 1015.8mb 64f
4:00 3 5 mph 1016mb 64f
3:00 3 5 mph 1016.3mb 63f
2:00 3 5 mph 1016.6mb 63f
1:00 11 11 mph 1016.3mb 62f
12:00 13 14 mph 1016.7mb 64f
11:00 10 13 mph 1016.9mb 64f
10:00 14 16 mph 1017.1mb 64f
9:00 16 20 mph 1016.7mb 63f
8:00 14 16 mph 1016.2mb 62f
7:00 15 17 mph 1016mb 63f
6:00 10 11 mph 1015.6mb 62f
5:00 14 16 mph 1015.8mb 62f
4:00 16 18 mph 1015.7mb 61f
3:00 20 23 mph 1016.1mb 62f
2:00 23 25 mph 1016.1mb 62f
1:00 20 22 mph 1016.2mb 61f
12:00 20 22 mph 1016.6mb 61f
ven. 09/22 11:00 17 18 mph 1017mb 61f
10:00 21 23 mph 1016.4mb 61f
9:00 26 31 mph 1016.1mb 61f
8:00 25 26 mph 1016.3mb 61f
7:00 22 26 mph 1016.2mb 60f
6:00 25 30 mph 1016.2mb 59f
5:00 29 36 mph 1016.1mb 61f
4:00 25 28 mph 1016.2mb 62f
3:00 24 28 mph 1016.1mb 61f
2:00 28 31 mph 1016.3mb 60f
1:00 31 33 mph 1016.8mb 59f
12:00 38 41 mph 1016.5mb 59f
11:00 32 37 mph 1017.1mb 58f